createdAt,value
2022-10-30T00:00:04.365Z,11.90
2022-10-30T00:03:02.452Z,12.70
2022-10-30T00:06:00.422Z,12.80
2022-10-30T00:08:57.849Z,12.70
2022-10-30T00:11:55.324Z,12.30
2022-10-30T00:14:52.767Z,11.00
2022-10-30T00:17:50.221Z,12.00
2022-10-30T00:20:47.725Z,11.60
2022-10-30T00:23:45.263Z,11.80
2022-10-30T00:26:42.704Z,12.10
2022-10-30T00:29:40.173Z,11.90
2022-10-30T00:32:37.621Z,11.90
2022-10-30T00:35:35.083Z,11.30
2022-10-30T00:38:32.566Z,10.40
2022-10-30T00:41:29.997Z,10.20
2022-10-30T00:44:27.462Z,9.90
2022-10-30T00:47:24.913Z,10.00
2022-10-30T00:50:22.398Z,9.70
2022-10-30T00:53:20.326Z,9.70
2022-10-30T00:56:17.759Z,9.10
2022-10-30T00:59:15.213Z,8.80
2022-10-30T01:02:12.714Z,8.50
2022-10-30T01:08:12.609Z,9.00
2022-10-30T01:11:10.098Z,8.60
2022-10-30T01:14:07.599Z,8.60
2022-10-30T01:17:05.048Z,8.20
2022-10-30T01:23:04.830Z,8.20
2022-10-30T01:26:02.274Z,8.20
2022-10-30T01:28:59.756Z,8.00
2022-10-30T01:31:57.218Z,8.20
2022-10-30T01:34:54.672Z,8.10
2022-10-30T01:37:52.109Z,7.60
2022-10-30T01:40:49.593Z,8.00
2022-10-30T01:43:47.039Z,8.30
2022-10-30T01:46:44.526Z,8.20
2022-10-30T01:49:42.018Z,8.10
2022-10-30T01:52:39.772Z,8.30
2022-10-30T01:55:37.239Z,8.10
2022-10-30T01:58:34.669Z,7.60
2022-10-30T02:01:33.525Z,7.00
2022-10-30T02:04:31.102Z,7.00
2022-10-30T02:07:28.551Z,6.90
2022-10-30T02:10:25.949Z,6.80
2022-10-30T02:13:23.403Z,7.20
2022-10-30T02:16:20.849Z,7.50
2022-10-30T02:19:18.296Z,6.80
2022-10-30T02:22:17.017Z,7.40
2022-10-30T02:25:14.505Z,6.30
2022-10-30T02:28:12.007Z,6.90
2022-10-30T02:31:09.450Z,6.40
2022-10-30T02:34:06.915Z,6.90
2022-10-30T02:37:04.360Z,6.80
2022-10-30T02:40:01.814Z,6.50
2022-10-30T02:42:59.719Z,7.10
2022-10-30T02:45:57.257Z,6.90
2022-10-30T02:48:54.704Z,6.50
2022-10-30T02:51:52.159Z,7.10
2022-10-30T02:54:49.594Z,6.90
2022-10-30T02:57:47.067Z,7.00
2022-10-30T03:00:44.492Z,6.30
2022-10-30T03:03:41.954Z,6.40
2022-10-30T03:06:39.403Z,6.80
2022-10-30T03:09:36.846Z,6.20
2022-10-30T03:12:34.310Z,6.70
2022-10-30T03:15:31.806Z,6.90
2022-10-30T03:18:29.277Z,5.70
2022-10-30T03:21:26.734Z,5.30
2022-10-30T03:24:24.203Z,6.30
2022-10-30T03:27:21.651Z,5.10
2022-10-30T03:30:19.102Z,5.20
2022-10-30T03:33:16.584Z,4.50
2022-10-30T03:36:14.045Z,4.70
2022-10-30T03:39:11.532Z,4.00
2022-10-30T03:42:08.985Z,4.60
2022-10-30T03:45:06.426Z,4.20
2022-10-30T03:48:03.862Z,4.40
2022-10-30T03:51:01.315Z,4.70
2022-10-30T03:53:58.763Z,4.90
2022-10-30T03:56:56.204Z,4.80
2022-10-30T03:59:53.663Z,5.10
2022-10-30T04:02:51.096Z,4.60
2022-10-30T04:05:51.141Z,5.40
2022-10-30T04:08:48.579Z,5.30
2022-10-30T04:11:46.164Z,5.00
2022-10-30T04:14:43.625Z,5.00
2022-10-30T04:17:41.083Z,4.20
2022-10-30T04:20:38.555Z,4.20
2022-10-30T04:23:36.023Z,4.20
2022-10-30T04:26:33.622Z,4.20
2022-10-30T04:29:31.068Z,4.40
2022-10-30T04:32:28.506Z,4.90
2022-10-30T04:35:25.978Z,4.40
2022-10-30T04:38:23.428Z,4.70
2022-10-30T04:41:20.864Z,4.40
2022-10-30T04:44:18.343Z,3.90
2022-10-30T04:47:17.418Z,4.30
2022-10-30T04:50:14.940Z,4.00
2022-10-30T04:53:12.409Z,4.40
2022-10-30T04:56:09.861Z,4.70
2022-10-30T04:59:07.398Z,4.70
2022-10-30T05:02:05.044Z,4.00
2022-10-30T05:05:02.656Z,4.00
2022-10-30T05:08:00.541Z,3.30
2022-10-30T05:10:58.520Z,3.40
2022-10-30T05:13:56.074Z,3.30
2022-10-30T05:16:54.660Z,3.10
2022-10-30T05:19:52.097Z,3.50
2022-10-30T05:22:49.557Z,3.40
2022-10-30T05:25:47.012Z,3.70
2022-10-30T05:28:44.459Z,3.30
2022-10-30T05:31:41.929Z,3.30
2022-10-30T05:34:39.396Z,3.30
2022-10-30T05:37:36.840Z,3.40
2022-10-30T05:40:34.286Z,3.70
2022-10-30T05:43:31.710Z,3.50
2022-10-30T05:46:29.154Z,3.40
2022-10-30T05:49:26.805Z,3.20
2022-10-30T05:52:24.251Z,3.80
2022-10-30T05:55:21.712Z,3.70
2022-10-30T05:58:19.170Z,3.40
2022-10-30T06:01:16.684Z,3.50
2022-10-30T06:04:14.158Z,4.30
2022-10-30T06:07:11.616Z,3.70
2022-10-30T06:10:09.072Z,4.00
2022-10-30T06:13:06.553Z,4.50
2022-10-30T06:16:03.993Z,4.10
2022-10-30T06:19:01.430Z,4.20
2022-10-30T06:21:58.897Z,4.80
2022-10-30T06:24:56.337Z,4.30
2022-10-30T06:27:53.901Z,4.70
2022-10-30T06:30:51.341Z,4.70
2022-10-30T06:33:48.786Z,4.50
2022-10-30T06:36:46.286Z,3.90
2022-10-30T06:39:43.763Z,4.40
2022-10-30T06:42:41.209Z,4.00
2022-10-30T06:45:38.655Z,4.40
2022-10-30T06:48:36.119Z,4.60
2022-10-30T06:51:33.574Z,4.90
2022-10-30T06:54:31.059Z,5.10
2022-10-30T06:57:28.520Z,5.00
2022-10-30T07:00:25.958Z,5.50
2022-10-30T07:03:23.403Z,6.00
2022-10-30T07:06:20.841Z,5.10
2022-10-30T07:09:18.320Z,5.20
2022-10-30T07:12:15.793Z,4.10
2022-10-30T07:15:13.233Z,4.70
2022-10-30T07:18:10.702Z,3.80
2022-10-30T07:21:08.175Z,4.70
2022-10-30T07:24:05.611Z,4.00
2022-10-30T07:27:03.066Z,4.80
2022-10-30T07:30:00.478Z,4.90
2022-10-30T07:32:58.199Z,3.30
2022-10-30T07:35:56.044Z,4.10
2022-10-30T07:38:53.536Z,3.80
2022-10-30T07:41:51.485Z,4.00
2022-10-30T07:44:48.949Z,4.60
2022-10-30T07:47:46.434Z,4.40
2022-10-30T07:50:44.284Z,4.20
2022-10-30T07:53:42.410Z,4.20
2022-10-30T07:56:40.391Z,5.00
2022-10-30T07:59:37.977Z,4.30
2022-10-30T08:02:35.489Z,5.50
2022-10-30T08:05:33.973Z,5.40
2022-10-30T08:08:33.008Z,6.00
2022-10-30T08:11:31.002Z,6.90
2022-10-30T08:14:29.182Z,6.50
2022-10-30T08:17:26.684Z,7.30
2022-10-30T08:20:24.164Z,7.40
2022-10-30T08:23:22.479Z,7.10
2022-10-30T08:26:19.986Z,6.50
2022-10-30T08:29:17.761Z,6.10
2022-10-30T08:32:16.594Z,6.10
2022-10-30T08:35:19.461Z,6.10
2022-10-30T08:38:17.482Z,6.40
2022-10-30T08:41:14.991Z,6.00
2022-10-30T08:44:12.487Z,5.80
2022-10-30T08:47:09.951Z,6.00
2022-10-30T08:50:07.446Z,6.10
2022-10-30T08:53:04.936Z,5.60
2022-10-30T08:56:02.370Z,6.20
2022-10-30T08:58:59.839Z,5.80
2022-10-30T09:01:57.471Z,5.80
2022-10-30T09:04:55.225Z,5.90
2022-10-30T09:07:52.707Z,6.10
2022-10-30T09:10:50.162Z,6.50
2022-10-30T09:13:47.631Z,7.30
2022-10-30T09:16:45.084Z,6.70
2022-10-30T09:19:42.623Z,7.00
2022-10-30T09:22:40.097Z,6.90
2022-10-30T09:25:37.564Z,6.30
2022-10-30T09:28:35.030Z,7.20
2022-10-30T09:31:32.485Z,5.60
2022-10-30T09:34:31.021Z,6.80
2022-10-30T09:37:28.505Z,6.60
2022-10-30T09:40:25.992Z,7.10
2022-10-30T09:43:24.758Z,6.60
2022-10-30T09:46:22.230Z,7.10
2022-10-30T09:49:19.674Z,7.10
2022-10-30T09:52:17.125Z,6.90
2022-10-30T09:55:14.581Z,6.80
2022-10-30T09:58:12.045Z,6.80
2022-10-30T10:01:09.953Z,6.60
2022-10-30T10:04:07.472Z,6.50
2022-10-30T10:07:04.921Z,7.40
2022-10-30T10:10:02.657Z,7.10
2022-10-30T10:13:01.411Z,7.10
2022-10-30T10:15:59.257Z,6.90
2022-10-30T10:18:56.713Z,6.90
2022-10-30T10:21:54.179Z,8.70
2022-10-30T10:24:51.629Z,7.00
2022-10-30T10:27:49.092Z,7.20
2022-10-30T10:30:46.520Z,7.20
2022-10-30T10:33:43.987Z,6.60
2022-10-30T10:36:41.429Z,6.70
2022-10-30T10:39:38.878Z,7.00
2022-10-30T10:42:36.340Z,7.30
2022-10-30T10:45:33.845Z,8.50
2022-10-30T10:48:31.324Z,9.00
2022-10-30T10:51:28.785Z,8.90
2022-10-30T10:54:26.247Z,8.40
2022-10-30T10:57:23.705Z,9.50
2022-10-30T11:00:21.248Z,8.00
2022-10-30T11:03:18.749Z,11.20
2022-10-30T11:06:16.242Z,11.30
2022-10-30T11:09:13.695Z,11.30
2022-10-30T11:12:11.139Z,9.80
2022-10-30T11:15:08.748Z,9.40
2022-10-30T11:21:09.268Z,8.50
2022-10-30T11:24:06.695Z,8.80
2022-10-30T11:27:04.164Z,9.30
2022-10-30T11:30:01.641Z,9.30
2022-10-30T11:32:59.229Z,9.60
2022-10-30T11:35:56.810Z,9.00
2022-10-30T11:38:54.252Z,9.90
2022-10-30T11:41:54.778Z,9.60
2022-10-30T11:44:53.082Z,9.70
2022-10-30T11:47:50.527Z,9.60
2022-10-30T11:50:48.000Z,10.30
2022-10-30T11:53:45.452Z,10.90
2022-10-30T11:56:42.912Z,9.70
2022-10-30T11:59:40.367Z,9.90
2022-10-30T12:05:42.552Z,10.00
2022-10-30T12:08:42.490Z,10.70
2022-10-30T12:11:39.988Z,9.50
2022-10-30T12:14:37.423Z,9.40
2022-10-30T12:17:34.902Z,10.80
2022-10-30T12:20:32.358Z,10.20
2022-10-30T12:23:29.813Z,10.00
2022-10-30T12:26:27.607Z,9.90
2022-10-30T12:29:36.505Z,11.50
2022-10-30T12:32:42.461Z,11.00
2022-10-30T12:35:39.913Z,10.50
2022-10-30T12:38:37.386Z,11.40
2022-10-30T12:41:34.866Z,12.50
2022-10-30T12:44:32.376Z,11.60
2022-10-30T12:47:29.859Z,11.50
2022-10-30T12:50:27.309Z,11.90
2022-10-30T12:53:24.753Z,13.80
2022-10-30T12:56:22.224Z,14.30
2022-10-30T12:59:19.682Z,14.10
2022-10-30T13:02:17.333Z,12.80
2022-10-30T13:05:14.852Z,13.10
2022-10-30T13:08:12.312Z,13.00
2022-10-30T13:11:09.780Z,13.00
2022-10-30T13:14:07.238Z,13.30
2022-10-30T13:17:04.699Z,14.10
2022-10-30T13:20:02.152Z,14.30
2022-10-30T13:22:59.850Z,13.90
2022-10-30T13:25:57.715Z,13.60
2022-10-30T13:28:55.178Z,13.30
2022-10-30T13:31:52.619Z,15.00
2022-10-30T13:34:50.091Z,14.30
2022-10-30T13:37:47.560Z,15.00
2022-10-30T13:40:45.020Z,16.90
2022-10-30T13:43:43.159Z,17.80
2022-10-30T13:46:40.953Z,18.90
2022-10-30T13:49:38.418Z,21.40
2022-10-30T13:52:35.853Z,19.30
2022-10-30T13:55:33.308Z,19.40
2022-10-30T13:58:30.744Z,16.70
2022-10-30T14:01:28.294Z,17.80
2022-10-30T14:04:26.692Z,18.60
2022-10-30T14:07:24.132Z,16.00
2022-10-30T14:10:21.611Z,17.50
2022-10-30T14:13:19.039Z,17.70
2022-10-30T14:16:16.539Z,16.70
2022-10-30T14:19:13.981Z,16.10
2022-10-30T14:22:11.450Z,16.40
2022-10-30T14:25:08.909Z,13.60
2022-10-30T14:28:06.366Z,13.80
2022-10-30T14:31:03.824Z,17.80
2022-10-30T14:34:01.744Z,18.50
2022-10-30T14:36:59.525Z,15.50
2022-10-30T14:39:57.054Z,14.00
2022-10-30T14:42:54.528Z,13.90
2022-10-30T14:45:52.307Z,13.80
2022-10-30T14:48:50.262Z,15.40
2022-10-30T14:51:47.734Z,15.10
2022-10-30T14:54:45.182Z,15.70
2022-10-30T14:57:42.740Z,15.60
2022-10-30T15:00:40.381Z,15.50
2022-10-30T15:03:37.820Z,15.60
2022-10-30T15:06:35.243Z,15.90
2022-10-30T15:09:32.739Z,16.90
2022-10-30T15:12:30.221Z,16.50
2022-10-30T15:15:27.699Z,15.20
2022-10-30T15:18:29.406Z,16.60
2022-10-30T15:21:29.893Z,15.80
2022-10-30T15:24:32.162Z,17.00
2022-10-30T15:27:30.003Z,17.60
2022-10-30T15:30:27.468Z,17.10
2022-10-30T15:33:25.269Z,16.30
2022-10-30T15:36:23.047Z,16.50
2022-10-30T15:39:20.836Z,15.80
2022-10-30T15:42:18.267Z,16.60
2022-10-30T15:45:15.750Z,39.10
2022-10-30T15:48:13.196Z,46.80
2022-10-30T15:51:10.649Z,30.10
2022-10-30T15:54:08.521Z,19.90
2022-10-30T15:57:42.869Z,18.40
2022-10-30T16:00:24.015Z,16.70
2022-10-30T16:03:21.920Z,16.10
2022-10-30T16:06:19.631Z,17.90
2022-10-30T16:09:17.147Z,17.50
2022-10-30T16:12:14.603Z,18.60
2022-10-30T16:15:12.178Z,17.70
2022-10-30T16:18:09.617Z,16.20
2022-10-30T16:21:07.069Z,17.80
2022-10-30T16:24:04.605Z,17.70
2022-10-30T16:27:02.043Z,19.40
2022-10-30T16:29:59.942Z,18.80
2022-10-30T16:32:58.040Z,18.80
2022-10-30T16:35:56.157Z,18.60
2022-10-30T16:38:53.835Z,19.60
2022-10-30T16:41:51.426Z,18.90
2022-10-30T16:44:48.898Z,22.80
2022-10-30T16:47:47.825Z,19.60
2022-10-30T16:50:45.736Z,19.20
2022-10-30T16:53:43.191Z,19.90
2022-10-30T16:56:46.603Z,19.50
2022-10-30T16:59:44.056Z,20.20
2022-10-30T17:02:42.209Z,18.60
2022-10-30T17:05:39.793Z,19.00
2022-10-30T17:08:37.650Z,19.00
2022-10-30T17:11:35.711Z,20.00
2022-10-30T17:14:36.440Z,21.90
2022-10-30T17:17:33.928Z,19.70
2022-10-30T17:20:32.413Z,19.40
2022-10-30T17:23:29.908Z,21.70
2022-10-30T17:26:27.511Z,21.70
2022-10-30T17:29:25.088Z,20.60
2022-10-30T17:32:23.303Z,19.40
2022-10-30T17:35:21.376Z,19.60
2022-10-30T17:38:19.476Z,20.40
2022-10-30T17:41:17.673Z,20.40
2022-10-30T17:44:16.520Z,17.50
2022-10-30T17:47:14.866Z,21.10
2022-10-30T17:50:13.178Z,21.00
2022-10-30T17:53:12.018Z,21.00
2022-10-30T17:56:09.782Z,23.90
2022-10-30T17:59:08.025Z,20.60
2022-10-30T18:02:05.822Z,21.40
2022-10-30T18:05:03.547Z,19.50
2022-10-30T18:08:02.037Z,21.10
2022-10-30T18:11:01.111Z,20.20
2022-10-30T18:13:58.692Z,18.90
2022-10-30T18:16:56.475Z,18.50
2022-10-30T18:19:54.425Z,17.40
2022-10-30T18:22:53.061Z,18.30
2022-10-30T18:25:51.517Z,19.60
2022-10-30T18:28:49.406Z,19.40
2022-10-30T18:31:47.411Z,18.50
2022-10-30T18:34:45.661Z,20.60
2022-10-30T18:37:44.703Z,17.80
2022-10-30T18:40:43.201Z,19.70
2022-10-30T18:43:46.915Z,19.10
2022-10-30T18:46:48.624Z,17.40
2022-10-30T18:49:46.373Z,17.50
2022-10-30T18:52:44.910Z,16.80
2022-10-30T18:55:44.644Z,16.10
2022-10-30T18:58:46.042Z,15.40
2022-10-30T19:01:45.072Z,16.40
2022-10-30T19:04:43.162Z,24.50
2022-10-30T19:07:40.852Z,25.50
2022-10-30T19:10:38.904Z,18.80
2022-10-30T19:13:37.339Z,15.90
2022-10-30T19:16:37.026Z,15.70
2022-10-30T19:19:38.016Z,15.30
2022-10-30T19:22:35.890Z,15.20
2022-10-30T19:25:34.394Z,14.90
2022-10-30T19:28:33.029Z,14.70
2022-10-30T19:31:32.357Z,18.70
2022-10-30T19:34:30.743Z,15.40
2022-10-30T19:37:28.564Z,13.50
2022-10-30T19:40:27.031Z,12.10
2022-10-30T19:43:25.294Z,12.30
2022-10-30T19:46:23.954Z,13.00
2022-10-30T19:49:22.154Z,12.10
2022-10-30T19:52:21.457Z,13.10
2022-10-30T19:55:24.947Z,13.70
2022-10-30T20:01:24.899Z,12.70
2022-10-30T20:04:23.865Z,11.60
2022-10-30T20:07:24.386Z,12.80
2022-10-30T20:10:22.723Z,13.30
2022-10-30T20:13:23.407Z,13.40
2022-10-30T20:16:23.434Z,14.10
2022-10-30T20:19:21.693Z,13.00
2022-10-30T20:22:22.192Z,14.00
2022-10-30T20:25:24.537Z,14.10
2022-10-30T20:28:24.518Z,12.90
2022-10-30T20:31:35.695Z,12.60
2022-10-30T20:34:33.786Z,12.20
2022-10-30T20:37:31.600Z,11.80
2022-10-30T20:40:29.925Z,11.20
2022-10-30T20:43:28.504Z,11.40
2022-10-30T20:46:27.918Z,12.10
2022-10-30T20:49:26.127Z,10.50
2022-10-30T20:52:23.845Z,10.30
2022-10-30T20:55:22.213Z,11.00
2022-10-30T20:58:24.464Z,11.60
2022-10-30T21:01:22.286Z,11.60
2022-10-30T21:04:20.019Z,10.00
2022-10-30T21:07:17.909Z,11.50
2022-10-30T21:10:15.964Z,11.90
2022-10-30T21:13:13.556Z,12.40
2022-10-30T21:16:11.157Z,11.40
2022-10-30T21:22:52.342Z,11.20
2022-10-30T21:25:52.704Z,12.40
2022-10-30T21:29:17.857Z,13.40
2022-10-30T21:32:15.443Z,27.40
2022-10-30T21:35:13.142Z,25.80
2022-10-30T21:38:25.445Z,14.10
2022-10-30T21:41:31.181Z,14.50
2022-10-30T21:52:01.485Z,12.00
2022-10-30T21:54:58.942Z,10.50
2022-10-30T21:58:05.706Z,10.50
2022-10-30T22:01:15.349Z,10.10
2022-10-30T22:04:38.105Z,11.10
2022-10-30T22:07:40.898Z,9.80
2022-10-30T22:10:38.684Z,9.90
2022-10-30T22:13:36.261Z,10.40
2022-10-30T22:16:43.032Z,9.60
2022-10-30T22:19:40.574Z,11.10
2022-10-30T22:22:39.912Z,10.20
2022-10-30T22:25:42.942Z,10.10
2022-10-30T22:28:40.425Z,10.10
2022-10-30T22:31:37.951Z,10.30
2022-10-30T22:34:37.451Z,10.30
2022-10-30T22:37:34.939Z,10.70
2022-10-30T22:41:31.405Z,10.90
2022-10-30T22:44:00.266Z,10.80
2022-10-30T22:47:21.416Z,12.20
2022-10-30T22:50:19.203Z,11.60
2022-10-30T22:53:16.666Z,11.70
2022-10-30T22:56:14.091Z,10.60
2022-10-30T22:59:14.339Z,10.60
2022-10-30T23:02:11.877Z,10.60
2022-10-30T23:05:09.394Z,10.60
2022-10-30T23:08:06.911Z,11.30
2022-10-30T23:11:04.336Z,10.70
2022-10-30T23:14:21.699Z,10.90
2022-10-30T23:17:19.227Z,10.20
2022-10-30T23:20:16.763Z,10.20
2022-10-30T23:23:14.383Z,10.20
2022-10-30T23:26:12.107Z,10.10
2022-10-30T23:29:09.997Z,10.40
2022-10-30T23:32:10.612Z,10.60
2022-10-30T23:35:29.551Z,10.50
2022-10-30T23:38:27.104Z,10.70
2022-10-30T23:41:24.614Z,9.40
2022-10-30T23:44:22.056Z,9.90
2022-10-30T23:47:42.738Z,10.00
2022-10-30T23:50:42.299Z,9.90
2022-10-30T23:53:39.768Z,10.20
2022-10-30T23:56:37.214Z,10.40
2022-10-30T23:59:34.673Z,10.40
